CheckWX is a tool to help pilots better visualize weather data.  It is not intended as a substitute for an official pre-flight weather briefing.

11:05:07 UTC

KDVK METAR
Stuart Powell Field Airport
Danville, Kentucky, USA
Current

10 mins ago

KDVK 241055Z AUTO 20003KT 10SM CLR 19/17 A3016 RMK AO2
Observed
May-24 @ 10:55 UTC
Wind
  • 200° at 3 KTS
Visibility
10 SM
Flight Rules
VFR
Cloud Levels
  • Clear skies
Temperature
19°C / 66°F
Dewpoint
17°C / 63°F
Humidity
88%
Altimeter
30.16" Hg
Pressure
1021.32 hPa
Previous

30 mins ago

KDVK 241035Z AUTO 00000KT 10SM CLR 18/17 A3016 RMK AO2
Observed
May-24 @ 10:35 UTC
Visibility
10 SM
Flight Rules
VFR
Cloud Levels
  • Clear skies
Temperature
18°C / 64°F
Dewpoint
17°C / 63°F
Humidity
94%
Altimeter
30.16" Hg
Pressure
1021.32 hPa
Previous

50 mins ago

KDVK 241015Z AUTO 20004KT 10SM SCT080 19/17 A3015 RMK AO2
Observed
May-24 @ 10:15 UTC
Wind
  • 200° at 4 KTS
Visibility
10 SM
Flight Rules
VFR
Cloud Levels
  • Scattered at 8,000' AGL
Temperature
19°C / 66°F
Dewpoint
17°C / 63°F
Humidity
88%
Altimeter
30.15" Hg
Pressure
1021.02 hPa